createdAt,value
2024-01-06T00:00:25.609Z,97815.31
2024-01-06T00:05:27.762Z,97814.16
2024-01-06T00:10:29.731Z,97806.94
2024-01-06T00:15:31.752Z,97808.53
2024-01-06T00:20:33.921Z,97805.31
2024-01-06T00:25:35.808Z,97801.09
2024-01-06T00:30:37.742Z,97799.00
2024-01-06T00:35:40.034Z,97794.63
2024-01-06T00:40:41.979Z,97801.56
2024-01-06T00:45:44.274Z,97793.97
2024-01-06T00:50:46.206Z,97793.78
2024-01-06T00:55:48.071Z,97794.44
2024-01-06T01:00:50.237Z,97811.41
2024-01-06T01:05:52.205Z,97818.69
2024-01-06T01:10:54.183Z,97818.25
2024-01-06T01:15:56.599Z,97815.81
2024-01-06T01:20:58.546Z,97808.50
2024-01-06T01:26:00.505Z,97816.59
2024-01-06T01:31:02.708Z,97817.59
2024-01-06T01:36:04.827Z,97802.72
2024-01-06T01:41:06.796Z,97798.16
2024-01-06T01:46:08.792Z,97787.00
2024-01-06T01:51:11.102Z,97778.09
2024-01-06T01:56:13.536Z,97769.84
2024-01-06T02:01:16.522Z,97775.84
2024-01-06T02:06:18.479Z,97771.31
2024-01-06T02:11:20.535Z,97768.91
2024-01-06T02:16:22.523Z,97774.91
2024-01-06T02:21:25.104Z,97768.25
2024-01-06T02:26:27.060Z,97758.41
2024-01-06T02:31:29.398Z,97753.56
2024-01-06T02:36:31.442Z,97745.47
2024-01-06T02:41:33.739Z,97749.34
2024-01-06T02:46:35.657Z,97745.59
2024-01-06T02:51:39.216Z,97741.56
2024-01-06T02:56:41.279Z,97735.25
2024-01-06T03:01:43.341Z,97726.22
2024-01-06T03:06:47.300Z,97735.38
2024-01-06T03:11:49.407Z,97740.28
2024-01-06T03:16:51.656Z,97735.50
2024-01-06T03:21:53.643Z,97731.25
2024-01-06T03:26:55.586Z,97729.22
2024-01-06T03:31:57.681Z,97746.31
2024-01-06T03:36:59.552Z,97738.91
2024-01-06T03:42:01.893Z,97735.16
2024-01-06T03:47:03.867Z,97736.00
2024-01-06T03:52:06.164Z,97735.53
2024-01-06T03:57:08.306Z,97732.47
2024-01-06T04:02:10.298Z,97745.69
2024-01-06T04:07:12.244Z,97754.44
2024-01-06T04:12:14.289Z,97763.81
2024-01-06T04:17:16.205Z,97771.50
2024-01-06T04:22:18.111Z,97782.69
2024-01-06T04:27:20.251Z,97783.78
2024-01-06T04:32:22.139Z,97789.25
2024-01-06T04:37:24.073Z,97790.25
2024-01-06T04:42:26.772Z,97783.47
2024-01-06T04:47:29.128Z,97796.91
2024-01-06T04:52:31.216Z,97801.13
2024-01-06T04:57:33.114Z,97800.44
2024-01-06T05:02:35.529Z,97812.25
2024-01-06T05:07:37.388Z,97803.69
2024-01-06T05:12:39.446Z,97804.84
2024-01-06T05:17:41.524Z,97808.50
2024-01-06T05:22:43.470Z,97803.66
2024-01-06T05:27:45.364Z,97804.97
2024-01-06T05:32:47.335Z,97807.56
2024-01-06T05:37:49.322Z,97794.47
2024-01-06T05:42:54.274Z,97806.91
2024-01-06T05:47:56.306Z,97800.13
2024-01-06T05:52:58.326Z,97791.56
2024-01-06T05:58:00.541Z,97796.28
2024-01-06T06:03:02.461Z,97821.66
2024-01-06T06:08:04.721Z,97824.91
2024-01-06T06:13:06.665Z,97825.66
2024-01-06T06:18:08.672Z,97822.47
2024-01-06T06:23:13.686Z,97828.59
2024-01-06T06:28:15.790Z,97828.91
2024-01-06T06:33:18.489Z,97830.06
2024-01-06T06:38:20.519Z,97832.28
2024-01-06T06:43:22.423Z,97832.81
2024-01-06T06:48:24.474Z,97835.22
2024-01-06T06:53:26.372Z,97833.59
2024-01-06T06:58:28.352Z,97834.22
2024-01-06T07:03:30.344Z,97844.28
2024-01-06T07:08:32.465Z,97841.22
2024-01-06T07:13:34.336Z,97841.25
2024-01-06T07:18:36.345Z,97835.41
2024-01-06T07:23:38.320Z,97849.81
2024-01-06T07:28:40.940Z,97852.72
2024-01-06T07:33:45.644Z,97858.38
2024-01-06T07:38:47.637Z,97863.72
2024-01-06T07:43:49.465Z,97852.38
2024-01-06T07:48:51.526Z,97856.97
2024-01-06T07:53:53.507Z,97860.66
2024-01-06T07:58:55.614Z,97871.31
2024-01-06T08:03:58.531Z,97882.47
2024-01-06T08:09:00.750Z,97882.00
2024-01-06T08:14:02.842Z,97883.41
2024-01-06T08:19:04.776Z,97884.41
2024-01-06T08:24:06.891Z,97882.47
2024-01-06T08:29:08.968Z,97893.31
2024-01-06T08:34:36.130Z,97892.38
2024-01-06T08:39:38.121Z,97900.47
2024-01-06T08:44:41.378Z,97917.91
2024-01-06T08:49:43.576Z,97910.97
2024-01-06T08:54:47.057Z,97920.19
2024-01-06T08:59:48.972Z,97915.00
2024-01-06T09:04:51.088Z,97921.31
2024-01-06T09:09:53.131Z,97934.81
2024-01-06T09:14:55.141Z,97929.25
2024-01-06T09:19:57.120Z,97939.75
2024-01-06T09:25:01.633Z,97936.03
2024-01-06T09:30:03.968Z,97945.88
2024-01-06T09:35:06.322Z,97944.69
2024-01-06T09:40:17.405Z,97947.44
2024-01-06T09:45:28.736Z,97943.94
2024-01-06T09:50:31.677Z,97943.31
2024-01-06T09:55:33.881Z,97962.94
2024-01-06T10:00:35.915Z,97947.72
2024-01-06T10:05:37.924Z,97964.47
2024-01-06T10:10:39.870Z,97968.03
2024-01-06T10:15:41.950Z,97952.63
2024-01-06T10:20:46.667Z,97958.72
2024-01-06T10:25:48.606Z,97965.81
2024-01-06T10:30:55.007Z,97948.25
2024-01-06T10:41:56.410Z,97951.41
2024-01-06T10:46:59.872Z,97953.97
2024-01-06T10:52:02.599Z,97929.03
2024-01-06T10:57:05.996Z,97923.53
2024-01-06T11:02:09.704Z,97929.56
2024-01-06T11:07:12.690Z,97932.47
2024-01-06T11:12:14.821Z,97930.69
2024-01-06T11:17:55.539Z,97923.91
2024-01-06T11:23:24.390Z,97917.75
2024-01-06T11:28:26.659Z,97914.03
2024-01-06T11:33:28.807Z,97909.97
2024-01-06T11:38:38.636Z,97915.66
2024-01-06T11:43:41.726Z,97922.41
2024-01-06T11:48:52.045Z,97919.78
2024-01-06T11:53:54.398Z,97922.75
2024-01-06T11:58:57.302Z,97919.63
2024-01-06T12:03:59.349Z,97920.47
2024-01-06T12:09:08.400Z,97915.28
2024-01-06T12:14:10.233Z,97919.00
2024-01-06T12:19:12.356Z,97923.31
2024-01-06T12:24:18.816Z,97912.00
2024-01-06T12:29:20.943Z,97907.47
2024-01-06T12:34:23.758Z,97897.72
2024-01-06T12:39:29.394Z,97899.97
2024-01-06T12:44:33.704Z,97908.06
2024-01-06T12:49:39.169Z,97911.84
2024-01-06T12:54:44.690Z,97909.72
2024-01-06T12:59:48.498Z,97919.81
2024-01-06T13:04:50.532Z,97912.38
2024-01-06T13:09:52.809Z,97914.94
2024-01-06T13:14:54.777Z,97911.03
2024-01-06T13:19:57.523Z,97906.81
2024-01-06T13:25:00.350Z,97913.34
2024-01-06T13:30:02.347Z,97921.22
2024-01-06T13:35:06.850Z,97909.84
2024-01-06T13:40:10.613Z,97912.56
2024-01-06T13:45:13.666Z,97926.41
2024-01-06T13:50:18.121Z,97919.66
2024-01-06T13:55:20.103Z,97910.38
2024-01-06T14:00:22.212Z,97914.53
2024-01-06T14:05:24.420Z,97914.50
2024-01-06T14:10:27.732Z,97919.88
2024-01-06T14:15:32.134Z,97924.00
2024-01-06T14:20:38.991Z,97919.13
2024-01-06T14:25:41.016Z,97925.00
2024-01-06T14:30:43.035Z,97915.84
2024-01-06T14:35:45.282Z,97917.09
2024-01-06T14:40:47.224Z,97924.25
2024-01-06T14:45:49.589Z,97924.75
2024-01-06T14:50:52.310Z,97930.31
2024-01-06T14:55:54.644Z,97923.84
2024-01-06T15:00:57.287Z,97924.50
2024-01-06T15:05:59.324Z,97925.44
2024-01-06T15:11:01.388Z,97925.13
2024-01-06T15:16:04.020Z,97933.38
2024-01-06T15:21:06.668Z,97919.38
2024-01-06T15:26:08.539Z,97924.91
2024-01-06T15:31:10.690Z,97925.81
2024-01-06T15:36:12.692Z,97915.22
2024-01-06T15:41:15.766Z,97921.53
2024-01-06T15:46:18.546Z,97919.59
2024-01-06T15:51:24.368Z,97918.69
2024-01-06T15:56:27.131Z,97913.75
2024-01-06T16:01:31.838Z,97925.78
2024-01-06T16:06:37.088Z,97921.56
2024-01-06T16:11:46.957Z,97914.91
2024-01-06T16:16:54.776Z,97911.44
2024-01-06T16:22:11.271Z,97917.34
2024-01-06T16:27:22.105Z,97915.34
2024-01-06T16:32:29.718Z,97920.13
2024-01-06T16:37:32.848Z,97915.88
2024-01-06T16:42:34.861Z,97914.06
2024-01-06T16:47:37.133Z,97904.81
2024-01-06T16:52:41.154Z,97909.41
2024-01-06T16:57:43.304Z,97910.72
2024-01-06T17:02:45.214Z,97908.09
2024-01-06T17:07:48.385Z,97911.97
2024-01-06T17:12:50.481Z,97917.03
2024-01-06T17:17:52.458Z,97912.91
2024-01-06T17:22:54.901Z,97906.00
2024-01-06T17:27:57.067Z,97933.13
2024-01-06T17:32:59.059Z,97929.06
2024-01-06T17:38:01.164Z,97931.66
2024-01-06T17:43:03.225Z,97923.66
2024-01-06T17:48:06.104Z,97927.75
2024-01-06T17:53:08.040Z,97924.34
2024-01-06T17:58:10.049Z,97922.34
2024-01-06T18:03:12.159Z,97920.53
2024-01-06T18:08:14.199Z,97921.53
2024-01-06T18:13:16.151Z,97920.81
2024-01-06T18:18:18.274Z,97928.75
2024-01-06T18:23:20.341Z,97918.81
2024-01-06T18:28:25.319Z,97929.38
2024-01-06T18:33:27.934Z,97926.53
2024-01-06T18:38:30.543Z,97913.47
2024-01-06T18:43:33.675Z,97912.56
2024-01-06T18:48:35.896Z,97918.09
2024-01-06T18:53:40.486Z,97917.19
2024-01-06T18:58:42.836Z,97918.50
2024-01-06T19:03:44.989Z,97915.16
2024-01-06T19:08:47.348Z,97910.38
2024-01-06T19:13:49.292Z,97907.66
2024-01-06T19:18:51.300Z,97912.25
2024-01-06T19:23:53.227Z,97901.94
2024-01-06T19:28:55.204Z,97900.72
2024-01-06T19:33:57.277Z,97902.69
2024-01-06T19:38:59.241Z,97909.88
2024-01-06T19:44:02.626Z,97896.13
2024-01-06T19:49:05.973Z,97904.59
2024-01-06T19:54:10.816Z,97902.13
2024-01-06T19:59:21.113Z,97900.28
2024-01-06T20:04:23.098Z,97890.13
2024-01-06T20:09:25.025Z,97893.13
2024-01-06T20:14:26.959Z,97891.28
2024-01-06T20:19:29.105Z,97896.81
2024-01-06T20:24:31.520Z,97900.44
2024-01-06T20:29:33.391Z,97899.16
2024-01-06T20:34:35.446Z,97901.09
2024-01-06T20:39:37.479Z,97898.03
2024-01-06T20:44:39.413Z,97906.00
2024-01-06T20:49:42.337Z,97905.28
2024-01-06T20:54:44.319Z,97909.72
2024-01-06T20:59:46.261Z,97905.53
2024-01-06T21:04:50.553Z,97907.25
2024-01-06T21:09:52.831Z,97902.66
2024-01-06T21:14:56.195Z,97911.75
2024-01-06T21:19:58.705Z,97906.44
2024-01-06T21:25:01.052Z,97910.50
2024-01-06T21:30:06.393Z,97909.75
2024-01-06T21:35:09.049Z,97907.16
2024-01-06T21:40:11.512Z,97917.25
2024-01-06T21:45:13.603Z,97911.13
2024-01-06T21:50:15.586Z,97908.56
2024-01-06T21:55:18.570Z,97909.91
2024-01-06T22:00:32.263Z,97910.00
2024-01-06T22:05:34.235Z,97903.53
2024-01-06T22:10:36.218Z,97907.47
2024-01-06T22:15:38.091Z,97913.22
2024-01-06T22:20:40.175Z,97903.50
2024-01-06T22:25:42.192Z,97894.16
2024-01-06T22:30:44.425Z,97898.47
2024-01-06T22:35:46.507Z,97907.59
2024-01-06T22:40:48.868Z,97911.19
2024-01-06T22:45:50.778Z,97907.63
2024-01-06T22:51:18.206Z,97915.22
2024-01-06T22:56:20.131Z,97913.38
2024-01-06T23:01:22.283Z,97906.09
2024-01-06T23:06:24.953Z,97908.22
2024-01-06T23:11:27.655Z,97925.44
2024-01-06T23:16:29.645Z,97918.72
2024-01-06T23:21:31.657Z,97922.06
2024-01-06T23:26:33.671Z,97930.13
2024-01-06T23:31:35.729Z,97924.81
2024-01-06T23:36:37.701Z,97925.66
2024-01-06T23:41:39.567Z,97932.00
2024-01-06T23:46:42.724Z,97926.94
2024-01-06T23:51:44.711Z,97930.72
2024-01-06T23:56:46.720Z,97926.22
